sensor_id;sensor_type;location;lat;lon;timestamp;temperature;humidity
67163;DHT22;54092;53.088;8.850;2024-03-02T00:00:13;7.80;99.90
67163;DHT22;54092;53.088;8.850;2024-03-02T00:02:49;7.80;99.90
67163;DHT22;54092;53.088;8.850;2024-03-02T00:05:16;7.80;99.90
67163;DHT22;54092;53.088;8.850;2024-03-02T00:07:43;7.80;99.90
67163;DHT22;54092;53.088;8.850;2024-03-02T00:10:16;7.70;99.90
67163;DHT22;54092;53.088;8.850;2024-03-02T00:12:42;7.80;99.90
67163;DHT22;54092;53.088;8.850;2024-03-02T00:15:37;7.80;99.90
67163;DHT22;54092;53.088;8.850;2024-03-02T00:18:05;7.80;99.90
67163;DHT22;54092;53.088;8.850;2024-03-02T00:20:31;7.80;99.90
67163;DHT22;54092;53.088;8.850;2024-03-02T00:23:04;7.80;99.90
67163;DHT22;54092;53.088;8.850;2024-03-02T00:25:44;7.80;99.90
67163;DHT22;54092;53.088;8.850;2024-03-02T00:28:20;7.80;99.90
67163;DHT22;54092;53.088;8.850;2024-03-02T00:30:52;7.80;99.90
67163;DHT22;54092;53.088;8.850;2024-03-02T00:33:20;7.80;99.90
67163;DHT22;54092;53.088;8.850;2024-03-02T00:35:47;7.80;99.90
67163;DHT22;54092;53.088;8.850;2024-03-02T00:38:13;7.80;99.90
67163;DHT22;54092;53.088;8.850;2024-03-02T00:40:41;7.80;99.90
67163;DHT22;54092;53.088;8.850;2024-03-02T00:45:43;7.80;99.90
67163;DHT22;54092;53.088;8.850;2024-03-02T00:48:09;7.70;99.90
67163;DHT22;54092;53.088;8.850;2024-03-02T00:50:34;7.70;99.90
67163;DHT22;54092;53.088;8.850;2024-03-02T00:53:01;7.70;99.90
67163;DHT22;54092;53.088;8.850;2024-03-02T00:55:27;7.70;99.90
67163;DHT22;54092;53.088;8.850;2024-03-02T00:57:52;7.60;99.90
67163;DHT22;54092;53.088;8.850;2024-03-02T01:00:18;7.60;99.90
67163;DHT22;54092;53.088;8.850;2024-03-02T01:02:43;7.60;99.90
67163;DHT22;54092;53.088;8.850;2024-03-02T01:05:10;7.50;99.90
67163;DHT22;54092;53.088;8.850;2024-03-02T01:07:38;7.60;99.90
67163;DHT22;54092;53.088;8.850;2024-03-02T01:10:04;7.50;99.90
67163;DHT22;54092;53.088;8.850;2024-03-02T01:12:29;7.50;99.90
67163;DHT22;54092;53.088;8.850;2024-03-02T01:14:55;7.50;99.90
67163;DHT22;54092;53.088;8.850;2024-03-02T01:17:20;7.40;99.90
67163;DHT22;54092;53.088;8.850;2024-03-02T01:19:45;7.40;99.90
67163;DHT22;54092;53.088;8.850;2024-03-02T01:22:11;7.40;99.90
67163;DHT22;54092;53.088;8.850;2024-03-02T01:24:38;7.40;99.90
67163;DHT22;54092;53.088;8.850;2024-03-02T01:27:03;7.40;99.90
67163;DHT22;54092;53.088;8.850;2024-03-02T01:29:29;7.40;99.90
67163;DHT22;54092;53.088;8.850;2024-03-02T01:31:54;7.30;99.90
67163;DHT22;54092;53.088;8.850;2024-03-02T01:34:20;7.30;99.90
67163;DHT22;54092;53.088;8.850;2024-03-02T01:36:49;7.30;99.90
67163;DHT22;54092;53.088;8.850;2024-03-02T01:39:14;7.20;99.90
67163;DHT22;54092;53.088;8.850;2024-03-02T01:41:40;7.20;99.90
67163;DHT22;54092;53.088;8.850;2024-03-02T01:44:05;7.20;99.90
67163;DHT22;54092;53.088;8.850;2024-03-02T01:46:31;7.10;99.90
67163;DHT22;54092;53.088;8.850;2024-03-02T01:48:56;7.10;99.90
67163;DHT22;54092;53.088;8.850;2024-03-02T01:51:22;7.10;99.90
67163;DHT22;54092;53.088;8.850;2024-03-02T01:53:47;7.10;99.90
67163;DHT22;54092;53.088;8.850;2024-03-02T01:56:13;7.00;99.90
67163;DHT22;54092;53.088;8.850;2024-03-02T01:58:38;7.00;99.90
67163;DHT22;54092;53.088;8.850;2024-03-02T02:01:04;7.00;99.90
67163;DHT22;54092;53.088;8.850;2024-03-02T02:03:30;7.00;99.90
67163;DHT22;54092;53.088;8.850;2024-03-02T02:05:56;7.00;99.90
67163;DHT22;54092;53.088;8.850;2024-03-02T02:08:21;7.00;99.90
67163;DHT22;54092;53.088;8.850;2024-03-02T02:10:47;7.10;99.90
67163;DHT22;54092;53.088;8.850;2024-03-02T02:13:12;7.00;99.90
67163;DHT22;54092;53.088;8.850;2024-03-02T02:15:38;7.00;99.90
67163;DHT22;54092;53.088;8.850;2024-03-02T02:18:04;7.00;99.90
67163;DHT22;54092;53.088;8.850;2024-03-02T02:20:29;7.00;99.90
67163;DHT22;54092;53.088;8.850;2024-03-02T02:23:02;7.00;99.90
67163;DHT22;54092;53.088;8.850;2024-03-02T02:25:29;7.00;99.90
67163;DHT22;54092;53.088;8.850;2024-03-02T02:27:55;7.00;99.90
67163;DHT22;54092;53.088;8.850;2024-03-02T02:30:24;7.00;99.90
67163;DHT22;54092;53.088;8.850;2024-03-02T02:32:50;6.90;99.90
67163;DHT22;54092;53.088;8.850;2024-03-02T02:35:16;6.90;99.90
67163;DHT22;54092;53.088;8.850;2024-03-02T02:37:42;6.90;99.90
67163;DHT22;54092;53.088;8.850;2024-03-02T02:40:08;6.90;99.90
67163;DHT22;54092;53.088;8.850;2024-03-02T02:42:34;6.90;99.90
67163;DHT22;54092;53.088;8.850;2024-03-02T02:44:59;6.90;99.90
67163;DHT22;54092;53.088;8.850;2024-03-02T02:47:25;6.90;99.90
67163;DHT22;54092;53.088;8.850;2024-03-02T02:49:51;6.90;99.90
67163;DHT22;54092;53.088;8.850;2024-03-02T02:52:17;6.90;99.90
67163;DHT22;54092;53.088;8.850;2024-03-02T02:54:43;6.80;99.90
67163;DHT22;54092;53.088;8.850;2024-03-02T02:57:08;6.80;99.90
67163;DHT22;54092;53.088;8.850;2024-03-02T02:59:35;6.80;99.90
67163;DHT22;54092;53.088;8.850;2024-03-02T03:02:01;6.70;99.90
67163;DHT22;54092;53.088;8.850;2024-03-02T03:04:26;6.70;99.90
67163;DHT22;54092;53.088;8.850;2024-03-02T03:06:52;6.70;99.90
67163;DHT22;54092;53.088;8.850;2024-03-02T03:09:17;6.70;99.90
67163;DHT22;54092;53.088;8.850;2024-03-02T03:11:43;6.70;99.90
67163;DHT22;54092;53.088;8.850;2024-03-02T03:14:08;6.70;99.90
67163;DHT22;54092;53.088;8.850;2024-03-02T03:16:34;6.70;99.90
67163;DHT22;54092;53.088;8.850;2024-03-02T03:18:59;6.70;99.90
67163;DHT22;54092;53.088;8.850;2024-03-02T03:21:25;6.70;99.90
67163;DHT22;54092;53.088;8.850;2024-03-02T03:23:50;6.70;99.90
67163;DHT22;54092;53.088;8.850;2024-03-02T03:26:16;6.70;99.90
67163;DHT22;54092;53.088;8.850;2024-03-02T03:28:41;6.80;99.90
67163;DHT22;54092;53.088;8.850;2024-03-02T03:31:07;6.70;99.90
67163;DHT22;54092;53.088;8.850;2024-03-02T03:33:32;6.70;99.90
67163;DHT22;54092;53.088;8.850;2024-03-02T03:35:58;6.70;99.90
67163;DHT22;54092;53.088;8.850;2024-03-02T03:38:23;6.70;99.90
67163;DHT22;54092;53.088;8.850;2024-03-02T03:40:49;6.70;99.90
67163;DHT22;54092;53.088;8.850;2024-03-02T03:43:14;6.80;99.90
67163;DHT22;54092;53.088;8.850;2024-03-02T03:45:40;6.80;99.90
67163;DHT22;54092;53.088;8.850;2024-03-02T03:48:06;6.80;99.90
67163;DHT22;54092;53.088;8.850;2024-03-02T03:50:32;6.70;99.90
67163;DHT22;54092;53.088;8.850;2024-03-02T03:52:57;6.80;99.90
67163;DHT22;54092;53.088;8.850;2024-03-02T03:55:23;6.80;99.90
67163;DHT22;54092;53.088;8.850;2024-03-02T03:57:48;6.70;99.90
67163;DHT22;54092;53.088;8.850;2024-03-02T04:00:14;6.70;99.90
67163;DHT22;54092;53.088;8.850;2024-03-02T04:02:40;6.70;99.90
67163;DHT22;54092;53.088;8.850;2024-03-02T04:05:06;6.80;99.90
67163;DHT22;54092;53.088;8.850;2024-03-02T04:07:35;6.70;99.90
67163;DHT22;54092;53.088;8.850;2024-03-02T04:10:06;6.70;99.90
67163;DHT22;54092;53.088;8.850;2024-03-02T04:12:33;6.80;99.90
67163;DHT22;54092;53.088;8.850;2024-03-02T04:14:59;6.80;99.90
67163;DHT22;54092;53.088;8.850;2024-03-02T04:17:25;6.80;99.90
67163;DHT22;54092;53.088;8.850;2024-03-02T04:19:50;6.80;99.90
67163;DHT22;54092;53.088;8.850;2024-03-02T04:22:15;6.80;99.90
67163;DHT22;54092;53.088;8.850;2024-03-02T04:24:41;6.80;99.90
67163;DHT22;54092;53.088;8.850;2024-03-02T04:27:07;6.80;99.90
67163;DHT22;54092;53.088;8.850;2024-03-02T04:29:33;6.80;99.90
67163;DHT22;54092;53.088;8.850;2024-03-02T04:31:58;6.80;99.90
67163;DHT22;54092;53.088;8.850;2024-03-02T04:34:24;6.80;99.90
67163;DHT22;54092;53.088;8.850;2024-03-02T04:36:49;6.80;99.90
67163;DHT22;54092;53.088;8.850;2024-03-02T04:39:15;6.80;99.90
67163;DHT22;54092;53.088;8.850;2024-03-02T04:41:41;6.90;99.90
67163;DHT22;54092;53.088;8.850;2024-03-02T04:44:06;6.80;99.90
67163;DHT22;54092;53.088;8.850;2024-03-02T04:46:33;6.80;99.90
67163;DHT22;54092;53.088;8.850;2024-03-02T04:48:59;6.80;99.90
67163;DHT22;54092;53.088;8.850;2024-03-02T04:51:24;6.80;99.90
67163;DHT22;54092;53.088;8.850;2024-03-02T04:53:50;6.80;99.90
67163;DHT22;54092;53.088;8.850;2024-03-02T04:56:15;6.80;99.90
67163;DHT22;54092;53.088;8.850;2024-03-02T04:58:59;6.80;99.90
67163;DHT22;54092;53.088;8.850;2024-03-02T05:01:25;6.80;99.90
67163;DHT22;54092;53.088;8.850;2024-03-02T05:03:50;6.80;99.90
67163;DHT22;54092;53.088;8.850;2024-03-02T05:06:16;6.80;99.90
67163;DHT22;54092;53.088;8.850;2024-03-02T05:08:41;6.80;99.90
67163;DHT22;54092;53.088;8.850;2024-03-02T05:11:07;6.80;99.90
67163;DHT22;54092;53.088;8.850;2024-03-02T05:13:51;6.80;99.90
67163;DHT22;54092;53.088;8.850;2024-03-02T05:16:16;6.70;99.90
67163;DHT22;54092;53.088;8.850;2024-03-02T05:18:41;6.70;99.90
67163;DHT22;54092;53.088;8.850;2024-03-02T05:21:07;6.70;99.90
67163;DHT22;54092;53.088;8.850;2024-03-02T05:23:32;6.70;99.90
67163;DHT22;54092;53.088;8.850;2024-03-02T05:25:58;6.70;99.90
67163;DHT22;54092;53.088;8.850;2024-03-02T05:28:24;6.70;99.90
67163;DHT22;54092;53.088;8.850;2024-03-02T05:30:49;6.70;99.90
67163;DHT22;54092;53.088;8.850;2024-03-02T05:33:15;6.70;99.90
67163;DHT22;54092;53.088;8.850;2024-03-02T05:35:40;6.60;99.90
67163;DHT22;54092;53.088;8.850;2024-03-02T05:38:06;6.70;99.90
67163;DHT22;54092;53.088;8.850;2024-03-02T05:40:31;6.70;99.90
67163;DHT22;54092;53.088;8.850;2024-03-02T05:42:57;6.70;99.90
67163;DHT22;54092;53.088;8.850;2024-03-02T05:45:22;6.70;99.90
67163;DHT22;54092;53.088;8.850;2024-03-02T05:47:48;6.60;99.90
67163;DHT22;54092;53.088;8.850;2024-03-02T05:50:13;6.60;99.90
67163;DHT22;54092;53.088;8.850;2024-03-02T05:52:39;6.70;99.90
67163;DHT22;54092;53.088;8.850;2024-03-02T05:55:04;6.70;99.90
67163;DHT22;54092;53.088;8.850;2024-03-02T05:57:30;6.70;99.90
67163;DHT22;54092;53.088;8.850;2024-03-02T06:00:20;6.70;99.90
67163;DHT22;54092;53.088;8.850;2024-03-02T06:02:47;6.70;99.90
67163;DHT22;54092;53.088;8.850;2024-03-02T06:05:12;6.70;99.90
67163;DHT22;54092;53.088;8.850;2024-03-02T06:07:38;6.70;99.90
67163;DHT22;54092;53.088;8.850;2024-03-02T06:10:04;6.70;99.90
67163;DHT22;54092;53.088;8.850;2024-03-02T06:12:31;6.70;99.90
67163;DHT22;54092;53.088;8.850;2024-03-02T06:14:56;6.70;99.90
67163;DHT22;54092;53.088;8.850;2024-03-02T06:17:22;6.70;99.90
67163;DHT22;54092;53.088;8.850;2024-03-02T06:19:47;6.70;99.90
67163;DHT22;54092;53.088;8.850;2024-03-02T06:22:13;6.70;99.90
67163;DHT22;54092;53.088;8.850;2024-03-02T06:24:38;6.70;99.90
67163;DHT22;54092;53.088;8.850;2024-03-02T06:27:04;6.70;99.90
67163;DHT22;54092;53.088;8.850;2024-03-02T06:29:32;6.70;99.90
67163;DHT22;54092;53.088;8.850;2024-03-02T06:31:58;6.70;99.90
67163;DHT22;54092;53.088;8.850;2024-03-02T06:34:24;6.70;99.90
67163;DHT22;54092;53.088;8.850;2024-03-02T06:36:49;6.80;99.90
67163;DHT22;54092;53.088;8.850;2024-03-02T06:39:14;6.80;99.90
67163;DHT22;54092;53.088;8.850;2024-03-02T06:41:40;6.80;99.90
67163;DHT22;54092;53.088;8.850;2024-03-02T06:44:05;6.80;99.90
67163;DHT22;54092;53.088;8.850;2024-03-02T06:46:31;6.80;99.90
67163;DHT22;54092;53.088;8.850;2024-03-02T06:48:57;6.90;99.90
67163;DHT22;54092;53.088;8.850;2024-03-02T06:51:22;6.90;99.90
67163;DHT22;54092;53.088;8.850;2024-03-02T06:53:48;7.00;99.90
67163;DHT22;54092;53.088;8.850;2024-03-02T06:56:14;7.00;99.90
67163;DHT22;54092;53.088;8.850;2024-03-02T06:58:39;7.10;99.90
67163;DHT22;54092;53.088;8.850;2024-03-02T07:01:05;7.10;99.90
67163;DHT22;54092;53.088;8.850;2024-03-02T07:03:30;7.10;99.90
67163;DHT22;54092;53.088;8.850;2024-03-02T07:05:56;7.20;99.90
67163;DHT22;54092;53.088;8.850;2024-03-02T07:08:22;7.30;99.90
67163;DHT22;54092;53.088;8.850;2024-03-02T07:10:48;7.30;99.90
67163;DHT22;54092;53.088;8.850;2024-03-02T07:13:13;7.40;99.90
67163;DHT22;54092;53.088;8.850;2024-03-02T07:15:39;7.50;99.90
67163;DHT22;54092;53.088;8.850;2024-03-02T07:18:19;7.50;99.90
67163;DHT22;54092;53.088;8.850;2024-03-02T07:20:45;7.70;99.90
67163;DHT22;54092;53.088;8.850;2024-03-02T07:23:10;7.90;99.90
67163;DHT22;54092;53.088;8.850;2024-03-02T07:25:36;8.20;99.90
67163;DHT22;54092;53.088;8.850;2024-03-02T07:28:01;8.20;99.90
67163;DHT22;54092;53.088;8.850;2024-03-02T07:30:28;8.20;99.90
67163;DHT22;54092;53.088;8.850;2024-03-02T07:32:53;8.20;99.90
67163;DHT22;54092;53.088;8.850;2024-03-02T07:35:19;8.10;99.90
67163;DHT22;54092;53.088;8.850;2024-03-02T07:37:44;8.10;99.90
67163;DHT22;54092;53.088;8.850;2024-03-02T07:40:10;8.10;99.90
67163;DHT22;54092;53.088;8.850;2024-03-02T07:42:39;8.10;99.90
67163;DHT22;54092;53.088;8.850;2024-03-02T07:45:05;8.10;99.90
67163;DHT22;54092;53.088;8.850;2024-03-02T07:47:35;8.20;99.90
67163;DHT22;54092;53.088;8.850;2024-03-02T07:50:00;8.20;99.90
67163;DHT22;54092;53.088;8.850;2024-03-02T07:52:26;8.20;99.90
67163;DHT22;54092;53.088;8.850;2024-03-02T07:54:51;8.20;99.90
67163;DHT22;54092;53.088;8.850;2024-03-02T07:57:17;8.30;99.90
67163;DHT22;54092;53.088;8.850;2024-03-02T07:59:42;8.30;99.90
67163;DHT22;54092;53.088;8.850;2024-03-02T08:02:08;8.30;99.90
67163;DHT22;54092;53.088;8.850;2024-03-02T08:04:34;8.30;99.90
67163;DHT22;54092;53.088;8.850;2024-03-02T08:07:00;8.40;99.90
67163;DHT22;54092;53.088;8.850;2024-03-02T08:09:25;8.40;99.90
67163;DHT22;54092;53.088;8.850;2024-03-02T08:11:51;8.40;99.90
67163;DHT22;54092;53.088;8.850;2024-03-02T08:14:16;8.40;99.90
67163;DHT22;54092;53.088;8.850;2024-03-02T08:16:42;8.40;99.90
67163;DHT22;54092;53.088;8.850;2024-03-02T08:19:08;8.50;99.90
67163;DHT22;54092;53.088;8.850;2024-03-02T08:21:34;8.50;99.90
67163;DHT22;54092;53.088;8.850;2024-03-02T08:24:01;8.60;99.90
67163;DHT22;54092;53.088;8.850;2024-03-02T08:26:27;8.60;99.90
67163;DHT22;54092;53.088;8.850;2024-03-02T08:28:55;8.60;99.90
67163;DHT22;54092;53.088;8.850;2024-03-02T08:31:20;8.60;99.90
67163;DHT22;54092;53.088;8.850;2024-03-02T08:33:46;8.70;99.90
67163;DHT22;54092;53.088;8.850;2024-03-02T08:36:11;8.70;99.90
67163;DHT22;54092;53.088;8.850;2024-03-02T08:38:37;8.70;99.90
67163;DHT22;54092;53.088;8.850;2024-03-02T08:41:03;8.70;99.90
67163;DHT22;54092;53.088;8.850;2024-03-02T08:43:29;8.70;99.90
67163;DHT22;54092;53.088;8.850;2024-03-02T08:45:54;8.80;99.90
67163;DHT22;54092;53.088;8.850;2024-03-02T08:48:20;8.90;99.90
67163;DHT22;54092;53.088;8.850;2024-03-02T08:50:46;9.00;99.90
67163;DHT22;54092;53.088;8.850;2024-03-02T08:53:12;9.40;99.90
67163;DHT22;54092;53.088;8.850;2024-03-02T08:55:37;9.90;99.90
67163;DHT22;54092;53.088;8.850;2024-03-02T08:58:03;10.20;99.90
67163;DHT22;54092;53.088;8.850;2024-03-02T09:00:28;10.70;99.90
67163;DHT22;54092;53.088;8.850;2024-03-02T09:02:54;11.30;99.90
67163;DHT22;54092;53.088;8.850;2024-03-02T09:05:19;11.90;99.90
67163;DHT22;54092;53.088;8.850;2024-03-02T09:07:45;12.40;99.90
67163;DHT22;54092;53.088;8.850;2024-03-02T09:10:10;12.70;99.90
67163;DHT22;54092;53.088;8.850;2024-03-02T09:12:37;13.00;99.20
67163;DHT22;54092;53.088;8.850;2024-03-02T09:15:03;12.90;96.30
67163;DHT22;54092;53.088;8.850;2024-03-02T09:17:29;12.90;97.20
67163;DHT22;54092;53.088;8.850;2024-03-02T09:19:55;13.40;96.00
67163;DHT22;54092;53.088;8.850;2024-03-02T09:22:21;13.80;95.00
67163;DHT22;54092;53.088;8.850;2024-03-02T09:24:46;14.20;93.50
67163;DHT22;54092;53.088;8.850;2024-03-02T09:27:12;13.90;92.30
67163;DHT22;54092;53.088;8.850;2024-03-02T09:29:38;14.00;92.50
67163;DHT22;54092;53.088;8.850;2024-03-02T09:32:05;13.90;92.60
67163;DHT22;54092;53.088;8.850;2024-03-02T09:34:31;13.90;91.60
67163;DHT22;54092;53.088;8.850;2024-03-02T09:36:57;13.30;93.10
67163;DHT22;54092;53.088;8.850;2024-03-02T09:39:23;13.30;93.60
67163;DHT22;54092;53.088;8.850;2024-03-02T09:41:48;13.40;93.70
67163;DHT22;54092;53.088;8.850;2024-03-02T09:44:14;13.40;93.60
67163;DHT22;54092;53.088;8.850;2024-03-02T09:46:40;13.00;94.20
67163;DHT22;54092;53.088;8.850;2024-03-02T09:49:05;13.20;94.50
67163;DHT22;54092;53.088;8.850;2024-03-02T09:51:31;13.50;94.00
67163;DHT22;54092;53.088;8.850;2024-03-02T09:53:57;14.00;93.50
67163;DHT22;54092;53.088;8.850;2024-03-02T09:56:22;14.00;91.60
67163;DHT22;54092;53.088;8.850;2024-03-02T09:58:48;13.70;92.30
67163;DHT22;54092;53.088;8.850;2024-03-02T10:01:14;13.30;93.30
67163;DHT22;54092;53.088;8.850;2024-03-02T10:03:39;12.90;94.90
67163;DHT22;54092;53.088;8.850;2024-03-02T10:06:25;13.50;94.20
67163;DHT22;54092;53.088;8.850;2024-03-02T10:08:52;14.20;92.40
67163;DHT22;54092;53.088;8.850;2024-03-02T10:11:31;14.70;90.40
67163;DHT22;54092;53.088;8.850;2024-03-02T10:16:34;15.00;89.10
67163;DHT22;54092;53.088;8.850;2024-03-02T10:19:15;15.70;86.90
67163;DHT22;54092;53.088;8.850;2024-03-02T10:21:42;16.40;83.30
67163;DHT22;54092;53.088;8.850;2024-03-02T10:24:08;16.70;80.70
67163;DHT22;54092;53.088;8.850;2024-03-02T10:26:33;16.80;79.90
67163;DHT22;54092;53.088;8.850;2024-03-02T10:28:59;16.50;77.50
67163;DHT22;54092;53.088;8.850;2024-03-02T10:31:25;16.90;77.40
67163;DHT22;54092;53.088;8.850;2024-03-02T10:33:54;17.50;75.00
67163;DHT22;54092;53.088;8.850;2024-03-02T10:36:20;17.30;74.90
67163;DHT22;54092;53.088;8.850;2024-03-02T10:38:46;17.50;74.50
67163;DHT22;54092;53.088;8.850;2024-03-02T10:41:17;17.30;73.70
67163;DHT22;54092;53.088;8.850;2024-03-02T10:43:44;17.70;73.90
67163;DHT22;54092;53.088;8.850;2024-03-02T10:46:12;18.20;73.20
67163;DHT22;54092;53.088;8.850;2024-03-02T10:48:39;17.50;70.10
67163;DHT22;54092;53.088;8.850;2024-03-02T10:51:06;17.70;72.50
67163;DHT22;54092;53.088;8.850;2024-03-02T10:53:32;17.90;69.80
67163;DHT22;54092;53.088;8.850;2024-03-02T10:55:58;18.00;71.70
67163;DHT22;54092;53.088;8.850;2024-03-02T10:58:32;17.50;69.90
67163;DHT22;54092;53.088;8.850;2024-03-02T11:01:04;17.40;68.90
67163;DHT22;54092;53.088;8.850;2024-03-02T11:03:33;17.40;72.40
67163;DHT22;54092;53.088;8.850;2024-03-02T11:06:00;17.90;71.00
67163;DHT22;54092;53.088;8.850;2024-03-02T11:08:29;18.30;68.50
67163;DHT22;54092;53.088;8.850;2024-03-02T11:10:58;18.60;67.40
67163;DHT22;54092;53.088;8.850;2024-03-02T11:13:33;18.20;67.10
67163;DHT22;54092;53.088;8.850;2024-03-02T11:16:06;18.60;66.40
67163;DHT22;54092;53.088;8.850;2024-03-02T11:18:36;18.80;65.50
67163;DHT22;54092;53.088;8.850;2024-03-02T11:21:03;17.80;64.80
67163;DHT22;54092;53.088;8.850;2024-03-02T11:23:33;18.00;65.20
67163;DHT22;54092;53.088;8.850;2024-03-02T11:28:46;18.80;64.60
67163;DHT22;54092;53.088;8.850;2024-03-02T11:31:12;19.10;61.80
67163;DHT22;54092;53.088;8.850;2024-03-02T11:33:37;19.30;61.80
67163;DHT22;54092;53.088;8.850;2024-03-02T11:36:03;19.50;59.60
67163;DHT22;54092;53.088;8.850;2024-03-02T11:38:32;20.10;59.20
67163;DHT22;54092;53.088;8.850;2024-03-02T11:41:03;20.30;57.80
67163;DHT22;54092;53.088;8.850;2024-03-02T11:43:32;20.80;58.30
67163;DHT22;54092;53.088;8.850;2024-03-02T11:46:03;21.50;52.90
67163;DHT22;54092;53.088;8.850;2024-03-02T11:48:33;21.90;53.40
67163;DHT22;54092;53.088;8.850;2024-03-02T11:51:00;22.10;51.70
67163;DHT22;54092;53.088;8.850;2024-03-02T11:53:27;21.80;50.30
67163;DHT22;54092;53.088;8.850;2024-03-02T11:55:55;21.90;48.70
67163;DHT22;54092;53.088;8.850;2024-03-02T11:58:21;21.70;49.20
67163;DHT22;54092;53.088;8.850;2024-03-02T12:00:52;21.20;48.60
67163;DHT22;54092;53.088;8.850;2024-03-02T12:03:18;20.50;47.60
67163;DHT22;54092;53.088;8.850;2024-03-02T12:05:49;20.40;47.50
67163;DHT22;54092;53.088;8.850;2024-03-02T12:08:15;20.00;49.30
67163;DHT22;54092;53.088;8.850;2024-03-02T12:10:40;20.20;49.80
67163;DHT22;54092;53.088;8.850;2024-03-02T12:13:07;20.50;48.30
67163;DHT22;54092;53.088;8.850;2024-03-02T12:15:37;20.00;47.90
67163;DHT22;54092;53.088;8.850;2024-03-02T12:18:03;18.40;49.90
67163;DHT22;54092;53.088;8.850;2024-03-02T12:20:30;18.30;52.80
67163;DHT22;54092;53.088;8.850;2024-03-02T12:22:58;18.60;52.10
67163;DHT22;54092;53.088;8.850;2024-03-02T12:25:25;19.00;53.20
67163;DHT22;54092;53.088;8.850;2024-03-02T12:27:55;18.80;52.40
67163;DHT22;54092;53.088;8.850;2024-03-02T12:30:21;19.20;52.20
67163;DHT22;54092;53.088;8.850;2024-03-02T12:32:48;18.60;51.00
67163;DHT22;54092;53.088;8.850;2024-03-02T12:35:14;18.70;53.80
67163;DHT22;54092;53.088;8.850;2024-03-02T12:37:47;19.20;52.40
67163;DHT22;54092;53.088;8.850;2024-03-02T12:40:13;18.50;53.50
67163;DHT22;54092;53.088;8.850;2024-03-02T12:42:40;18.90;53.40
67163;DHT22;54092;53.088;8.850;2024-03-02T12:45:07;19.30;51.50
67163;DHT22;54092;53.088;8.850;2024-03-02T12:47:33;19.70;49.30
67163;DHT22;54092;53.088;8.850;2024-03-02T12:50:00;19.70;49.30
67163;DHT22;54092;53.088;8.850;2024-03-02T12:52:25;20.40;49.60
67163;DHT22;54092;53.088;8.850;2024-03-02T12:54:51;20.60;48.80
67163;DHT22;54092;53.088;8.850;2024-03-02T12:57:18;19.80;49.50
67163;DHT22;54092;53.088;8.850;2024-03-02T12:59:47;20.00;49.40
67163;DHT22;54092;53.088;8.850;2024-03-02T13:02:19;20.30;49.60
67163;DHT22;54092;53.088;8.850;2024-03-02T13:04:52;20.90;50.40
67163;DHT22;54092;53.088;8.850;2024-03-02T13:07:18;21.30;48.10
67163;DHT22;54092;53.088;8.850;2024-03-02T13:09:45;21.70;46.60
67163;DHT22;54092;53.088;8.850;2024-03-02T13:12:11;21.70;48.30
67163;DHT22;54092;53.088;8.850;2024-03-02T13:14:37;21.50;47.70
67163;DHT22;54092;53.088;8.850;2024-03-02T13:17:02;21.70;47.50
67163;DHT22;54092;53.088;8.850;2024-03-02T13:19:30;21.80;46.10
67163;DHT22;54092;53.088;8.850;2024-03-02T13:21:56;20.50;46.70
67163;DHT22;54092;53.088;8.850;2024-03-02T13:24:22;20.80;48.90
67163;DHT22;54092;53.088;8.850;2024-03-02T13:26:51;20.70;47.80
67163;DHT22;54092;53.088;8.850;2024-03-02T13:29:21;19.80;49.10
67163;DHT22;54092;53.088;8.850;2024-03-02T13:31:46;19.00;51.10
67163;DHT22;54092;53.088;8.850;2024-03-02T13:34:12;18.30;51.20
67163;DHT22;54092;53.088;8.850;2024-03-02T13:36:37;17.90;54.70
67163;DHT22;54092;53.088;8.850;2024-03-02T13:39:04;17.90;56.90
67163;DHT22;54092;53.088;8.850;2024-03-02T13:41:31;17.90;55.10
67163;DHT22;54092;53.088;8.850;2024-03-02T13:43:57;18.30;55.20
67163;DHT22;54092;53.088;8.850;2024-03-02T13:46:23;18.40;54.70
67163;DHT22;54092;53.088;8.850;2024-03-02T13:48:48;18.40;53.30
67163;DHT22;54092;53.088;8.850;2024-03-02T13:51:13;18.30;54.50
67163;DHT22;54092;53.088;8.850;2024-03-02T13:53:39;18.30;54.00
67163;DHT22;54092;53.088;8.850;2024-03-02T13:56:05;18.50;53.70
67163;DHT22;54092;53.088;8.850;2024-03-02T13:58:31;18.50;53.40
67163;DHT22;54092;53.088;8.850;2024-03-02T14:00:57;18.50;54.10
67163;DHT22;54092;53.088;8.850;2024-03-02T14:03:23;18.00;53.20
67163;DHT22;54092;53.088;8.850;2024-03-02T14:05:48;17.30;54.60
67163;DHT22;54092;53.088;8.850;2024-03-02T14:08:15;17.50;56.30
67163;DHT22;54092;53.088;8.850;2024-03-02T14:10:41;17.60;54.20
67163;DHT22;54092;53.088;8.850;2024-03-02T14:13:08;18.10;53.80
67163;DHT22;54092;53.088;8.850;2024-03-02T14:15:33;18.20;54.10
67163;DHT22;54092;53.088;8.850;2024-03-02T14:17:59;18.00;53.90
67163;DHT22;54092;53.088;8.850;2024-03-02T14:20:25;17.70;53.50
67163;DHT22;54092;53.088;8.850;2024-03-02T14:22:50;17.70;54.40
67163;DHT22;54092;53.088;8.850;2024-03-02T14:25:17;17.90;54.80
67163;DHT22;54092;53.088;8.850;2024-03-02T14:27:42;17.90;55.10
67163;DHT22;54092;53.088;8.850;2024-03-02T14:30:08;17.80;57.30
67163;DHT22;54092;53.088;8.850;2024-03-02T14:32:34;17.50;55.60
67163;DHT22;54092;53.088;8.850;2024-03-02T14:34:59;17.40;56.20
67163;DHT22;54092;53.088;8.850;2024-03-02T14:37:25;17.20;56.10
67163;DHT22;54092;53.088;8.850;2024-03-02T14:39:50;16.90;57.70
67163;DHT22;54092;53.088;8.850;2024-03-02T14:42:16;16.70;59.80
67163;DHT22;54092;53.088;8.850;2024-03-02T14:44:41;16.60;59.70
67163;DHT22;54092;53.088;8.850;2024-03-02T14:47:07;16.50;59.60
67163;DHT22;54092;53.088;8.850;2024-03-02T14:49:33;16.60;59.60
67163;DHT22;54092;53.088;8.850;2024-03-02T14:52:01;16.50;60.40
67163;DHT22;54092;53.088;8.850;2024-03-02T14:54:26;16.50;60.20
67163;DHT22;54092;53.088;8.850;2024-03-02T14:56:52;16.50;60.40
67163;DHT22;54092;53.088;8.850;2024-03-02T14:59:17;16.50;59.60
67163;DHT22;54092;53.088;8.850;2024-03-02T15:01:44;16.40;60.60
67163;DHT22;54092;53.088;8.850;2024-03-02T15:04:09;16.30;60.60
67163;DHT22;54092;53.088;8.850;2024-03-02T15:06:35;16.10;62.80
67163;DHT22;54092;53.088;8.850;2024-03-02T15:09:00;16.00;64.40
67163;DHT22;54092;53.088;8.850;2024-03-02T15:11:27;16.00;64.00
67163;DHT22;54092;53.088;8.850;2024-03-02T15:13:52;15.80;65.60
67163;DHT22;54092;53.088;8.850;2024-03-02T15:16:18;15.80;66.40
67163;DHT22;54092;53.088;8.850;2024-03-02T15:18:43;15.80;66.30
67163;DHT22;54092;53.088;8.850;2024-03-02T15:21:10;15.90;66.00
67163;DHT22;54092;53.088;8.850;2024-03-02T15:23:36;15.80;65.70
67163;DHT22;54092;53.088;8.850;2024-03-02T15:26:01;15.80;65.60
67163;DHT22;54092;53.088;8.850;2024-03-02T15:28:27;15.80;66.90
67163;DHT22;54092;53.088;8.850;2024-03-02T15:30:52;15.80;67.80
67163;DHT22;54092;53.088;8.850;2024-03-02T15:33:18;16.00;68.00
67163;DHT22;54092;53.088;8.850;2024-03-02T15:35:44;16.00;67.90
67163;DHT22;54092;53.088;8.850;2024-03-02T15:38:09;16.20;67.90
67163;DHT22;54092;53.088;8.850;2024-03-02T15:40:37;16.20;67.80
67163;DHT22;54092;53.088;8.850;2024-03-02T15:43:03;15.90;68.50